Adelma Beach, Washington
Current Conditions -  °F | °C
As of 9:56 PM on Tuesday 21 Oct 2014 (Local Time) from KNUW Reporting Station
Overcast Overcast  
Wind Chill: 62°   Ceiling: 12000
Heat Index: 62°   Visibility: 10mi
Dew Point: 47°   Wind: 28mph
Humidity: 58%   Direction: 140°SE
Pressure: 29.72"   Gusts: 39mph
Location:  48.026°N, 122.859°W
Report Text: KNUW 220456Z 14024G34KT 10SM SCT035 BKN120 OVC200 17/08 A2972 RMK AO2 PK WND 14034/0435 SLP067 T01670083 $
Loading
Personal Weather Stations






























Interactive Weather Map
Tropical Storm Tracking
New forecast layout! Learn more

10-Day Weather Forecast

Advertisements
Track Severe Weather on mobile